createdAt,value
2022-12-04T00:01:28.226Z,100.50
2022-12-04T00:03:58.106Z,97.47
2022-12-04T00:06:26.385Z,100.18
2022-12-04T00:08:59.640Z,98.10
2022-12-04T00:11:32.709Z,105.32
2022-12-04T00:14:06.788Z,93.50
2022-12-04T00:16:35.527Z,79.67
2022-12-04T00:19:02.819Z,100.57
2022-12-04T00:21:30.353Z,101.43
2022-12-04T00:23:57.310Z,99.53
2022-12-04T00:26:27.042Z,93.07
2022-12-04T00:28:54.900Z,100.57
2022-12-04T00:31:25.426Z,100.03
2022-12-04T00:33:55.333Z,105.68
2022-12-04T00:36:25.271Z,104.53
2022-12-04T00:38:52.610Z,96.70
2022-12-04T00:41:23.470Z,101.07
2022-12-04T00:43:50.658Z,99.40
2022-12-04T00:46:18.115Z,100.18
2022-12-04T00:48:45.774Z,95.18
2022-12-04T00:51:16.801Z,98.60
2022-12-04T00:53:44.515Z,90.97
2022-12-04T00:56:19.747Z,93.60
2022-12-04T00:58:47.884Z,91.80
2022-12-04T01:01:18.724Z,93.30
2022-12-04T01:03:48.897Z,91.60
2022-12-04T01:06:19.479Z,93.07
2022-12-04T01:08:46.939Z,94.63
2022-12-04T01:11:16.441Z,94.85
2022-12-04T01:13:43.901Z,109.78
2022-12-04T01:16:23.855Z,94.00
2022-12-04T01:18:51.833Z,100.45
2022-12-04T01:21:20.134Z,97.53
2022-12-04T01:23:49.374Z,99.35
2022-12-04T01:26:21.475Z,96.13
2022-12-04T01:28:50.967Z,94.82
2022-12-04T01:31:20.663Z,103.97
2022-12-04T01:33:50.946Z,105.35
2022-12-04T01:36:23.708Z,102.20
2022-12-04T01:38:50.974Z,105.07
2022-12-04T01:41:22.244Z,93.97
2022-12-04T01:44:07.586Z,109.30
2022-12-04T01:46:35.151Z,107.85
2022-12-04T01:49:03.827Z,105.47
2022-12-04T01:51:35.927Z,102.28
2022-12-04T01:54:07.975Z,99.32
2022-12-04T01:56:55.298Z,93.28
2022-12-04T01:59:27.637Z,87.85
2022-12-04T02:02:07.366Z,86.00
2022-12-04T02:04:36.452Z,93.25
2022-12-04T02:07:03.996Z,92.32
2022-12-04T02:09:32.533Z,80.28
2022-12-04T02:12:36.574Z,83.93
2022-12-04T02:15:22.706Z,90.93
2022-12-04T02:20:31.701Z,82.88
2022-12-04T02:23:17.435Z,80.38
2022-12-04T02:25:48.427Z,52.97
2022-12-04T02:29:06.802Z,80.47
2022-12-04T02:32:12.252Z,77.43
2022-12-04T02:34:48.244Z,63.72
2022-12-04T02:37:33.129Z,73.10
2022-12-04T02:40:12.176Z,67.07
2022-12-04T02:42:47.764Z,68.95
2022-12-04T02:47:48.607Z,73.53
2022-12-04T02:50:19.109Z,67.30
2022-12-04T02:53:26.717Z,69.30
2022-12-04T02:56:03.108Z,64.60
2022-12-04T02:58:35.478Z,70.55
2022-12-04T03:01:18.165Z,65.20
2022-12-04T03:03:54.314Z,67.13
2022-12-04T03:06:24.124Z,59.50
2022-12-04T03:08:57.331Z,68.63
2022-12-04T03:11:28.690Z,67.72
2022-12-04T03:14:04.954Z,66.30
2022-12-04T03:16:37.608Z,66.43
2022-12-04T03:19:12.384Z,68.20
2022-12-04T03:21:48.286Z,70.47
2022-12-04T03:24:21.645Z,52.05
2022-12-04T03:27:09.725Z,69.57
2022-12-04T03:29:58.887Z,67.80
2022-12-04T03:32:36.251Z,65.38
2022-12-04T03:35:11.393Z,69.60
2022-12-04T03:38:03.198Z,71.07
2022-12-04T03:40:43.821Z,67.40
2022-12-04T03:43:27.937Z,73.40
2022-12-04T03:46:17.104Z,71.15
2022-12-04T03:48:52.691Z,72.18
2022-12-04T03:51:26.317Z,77.43
2022-12-04T03:54:05.002Z,78.43
2022-12-04T03:56:38.709Z,72.28
2022-12-04T03:59:22.448Z,77.03
2022-12-04T04:01:52.138Z,72.68
2022-12-04T04:04:27.385Z,75.43
2022-12-04T04:07:01.509Z,75.20
2022-12-04T04:09:35.688Z,82.10
2022-12-04T04:12:11.934Z,76.07
2022-12-04T04:15:04.220Z,77.35
2022-12-04T04:17:56.456Z,70.88
2022-12-04T04:20:49.152Z,74.50
2022-12-04T04:23:37.184Z,73.63
2022-12-04T04:26:07.344Z,74.93
2022-12-04T04:28:39.940Z,74.45
2022-12-04T04:31:13.679Z,70.95
2022-12-04T04:33:52.106Z,73.93
2022-12-04T04:37:10.370Z,76.32
2022-12-04T04:40:01.040Z,77.43
2022-12-04T04:42:31.384Z,73.40
2022-12-04T04:45:10.860Z,78.15
2022-12-04T04:47:52.769Z,74.50
2022-12-04T04:50:20.994Z,68.05
2022-12-04T04:52:53.426Z,70.25
2022-12-04T04:55:21.118Z,70.82
2022-12-04T04:57:48.835Z,68.78
2022-12-04T05:00:19.631Z,68.00
2022-12-04T05:02:48.827Z,64.95
2022-12-04T05:05:16.519Z,68.25
2022-12-04T05:07:43.855Z,67.40
2022-12-04T05:10:11.103Z,64.35
2022-12-04T05:12:38.702Z,62.80
2022-12-04T05:15:06.212Z,62.28
2022-12-04T05:17:37.908Z,61.47
2022-12-04T05:20:06.244Z,57.42
2022-12-04T05:22:35.311Z,62.78
2022-12-04T05:25:03.607Z,58.65
2022-12-04T05:27:33.172Z,60.78
2022-12-04T05:30:00.298Z,61.95
2022-12-04T05:32:29.364Z,66.22
2022-12-04T05:34:57.106Z,62.35
2022-12-04T05:37:25.064Z,57.70
2022-12-04T05:39:52.224Z,62.72
2022-12-04T05:42:19.594Z,61.38
2022-12-04T05:44:50.893Z,63.60
2022-12-04T05:47:18.211Z,64.82
2022-12-04T05:49:47.409Z,65.75
2022-12-04T05:52:14.917Z,58.70
2022-12-04T05:54:44.387Z,61.00
2022-12-04T05:57:11.671Z,66.35
2022-12-04T05:59:38.854Z,61.55
2022-12-04T06:02:08.594Z,64.35
2022-12-04T06:04:37.525Z,68.65
2022-12-04T06:07:04.882Z,62.85
2022-12-04T06:09:31.803Z,66.63
2022-12-04T06:11:59.403Z,68.47
2022-12-04T06:14:26.630Z,66.82
2022-12-04T06:16:54.090Z,65.60
2022-12-04T06:19:22.448Z,63.53
2022-12-04T06:21:52.632Z,68.32
2022-12-04T06:24:24.407Z,65.47
2022-12-04T06:27:27.193Z,67.68
2022-12-04T06:29:43.686Z,68.05
2022-12-04T06:32:12.239Z,68.00
2022-12-04T06:34:44.756Z,77.13
2022-12-04T06:37:14.212Z,70.07
2022-12-04T06:39:41.132Z,73.82
2022-12-04T06:42:10.768Z,67.82
2022-12-04T06:44:37.726Z,70.50
2022-12-04T06:47:05.543Z,70.45
2022-12-04T06:49:36.216Z,79.25
2022-12-04T06:52:03.779Z,78.05
2022-12-04T06:54:30.783Z,75.95
2022-12-04T07:00:28.794Z,77.72
2022-12-04T07:02:56.226Z,74.57
2022-12-04T07:05:23.201Z,75.60
2022-12-04T07:07:53.001Z,72.85
2022-12-04T07:10:20.081Z,80.65
2022-12-04T07:12:47.434Z,77.93
2022-12-04T07:15:14.768Z,81.03
2022-12-04T07:17:42.226Z,75.65
2022-12-04T07:20:11.990Z,74.45
2022-12-04T07:22:39.606Z,73.18
2022-12-04T07:25:06.762Z,68.90
2022-12-04T07:27:34.025Z,66.07
2022-12-04T07:30:00.970Z,72.10
2022-12-04T07:32:28.259Z,69.70
2022-12-04T07:34:55.187Z,71.80
2022-12-04T07:37:22.482Z,65.30
2022-12-04T07:39:53.116Z,70.72
2022-12-04T07:42:24.070Z,69.68
2022-12-04T07:44:51.426Z,72.78
2022-12-04T07:47:18.703Z,71.53
2022-12-04T07:49:45.720Z,66.13
2022-12-04T07:52:13.264Z,69.50
2022-12-04T07:54:40.310Z,73.03
2022-12-04T07:57:07.608Z,71.85
2022-12-04T07:59:34.648Z,75.35
2022-12-04T08:02:02.048Z,71.22
2022-12-04T08:04:29.078Z,75.85
2022-12-04T08:06:56.757Z,77.00
2022-12-04T08:09:23.761Z,75.20
2022-12-04T08:11:51.115Z,67.70
2022-12-04T08:14:18.167Z,72.60
2022-12-04T08:16:49.736Z,77.05
2022-12-04T08:19:19.547Z,66.28
2022-12-04T08:21:46.900Z,68.13
2022-12-04T08:24:14.726Z,80.05
2022-12-04T08:26:42.065Z,76.63
2022-12-04T08:29:11.643Z,67.82
2022-12-04T08:31:39.092Z,73.97
2022-12-04T08:34:07.706Z,66.82
2022-12-04T08:36:35.501Z,69.03
2022-12-04T08:39:02.877Z,66.60
2022-12-04T08:41:30.558Z,62.85
2022-12-04T08:43:59.046Z,58.67
2022-12-04T08:46:27.934Z,57.85
2022-12-04T08:48:55.284Z,58.75
2022-12-04T08:51:25.256Z,59.33
2022-12-04T08:53:57.665Z,60.05
2022-12-04T08:56:29.906Z,61.47
2022-12-04T08:59:00.330Z,57.63
2022-12-04T09:01:29.387Z,61.95
2022-12-04T09:03:57.863Z,57.50
2022-12-04T09:06:26.201Z,56.00
2022-12-04T09:08:58.230Z,56.42
2022-12-04T09:11:32.078Z,58.95
2022-12-04T09:14:02.273Z,83.40
2022-12-04T09:16:33.577Z,67.45
2022-12-04T09:19:02.245Z,51.25
2022-12-04T09:21:30.737Z,56.15
2022-12-04T09:24:02.741Z,55.08
2022-12-04T09:26:33.335Z,50.25
2022-12-04T09:29:04.987Z,58.83
2022-12-04T09:31:38.402Z,54.50
2022-12-04T09:34:06.574Z,51.05
2022-12-04T09:36:34.795Z,46.70
2022-12-04T09:39:03.396Z,53.60
2022-12-04T09:41:48.597Z,56.15
2022-12-04T09:44:31.029Z,52.42
2022-12-04T09:47:28.423Z,48.65
2022-12-04T09:50:01.885Z,52.78
2022-12-04T09:52:51.434Z,48.55
2022-12-04T09:55:33.999Z,47.70
2022-12-04T09:58:06.206Z,53.33
2022-12-04T10:00:39.397Z,54.90
2022-12-04T10:03:19.138Z,50.85
2022-12-04T10:06:05.956Z,50.90
2022-12-04T10:08:40.883Z,50.47
2022-12-04T10:11:17.670Z,50.72
2022-12-04T10:13:54.371Z,55.15
2022-12-04T10:16:52.786Z,53.10
2022-12-04T10:19:28.783Z,53.10
2022-12-04T10:22:08.516Z,50.95
2022-12-04T10:24:46.793Z,48.40
2022-12-04T10:27:32.700Z,49.47
2022-12-04T10:30:27.730Z,49.40
2022-12-04T10:33:16.827Z,50.30
2022-12-04T10:35:47.727Z,50.97
2022-12-04T10:38:46.171Z,45.85
2022-12-04T10:41:28.368Z,47.95
2022-12-04T10:43:56.051Z,52.58
2022-12-04T10:46:32.982Z,56.58
2022-12-04T10:49:09.632Z,50.15
2022-12-04T10:51:42.060Z,49.20
2022-12-04T10:54:32.763Z,49.38
2022-12-04T10:57:03.578Z,53.58
2022-12-04T10:59:42.078Z,48.15
2022-12-04T11:02:12.438Z,43.60
2022-12-04T11:04:40.489Z,50.47
2022-12-04T11:07:34.856Z,50.25
2022-12-04T11:10:06.721Z,48.22
2022-12-04T11:12:36.387Z,51.47
2022-12-04T11:15:06.396Z,53.38
2022-12-04T11:17:34.230Z,47.30
2022-12-04T11:20:24.311Z,45.83
2022-12-04T11:22:59.820Z,49.40
2022-12-04T11:25:34.131Z,46.08
2022-12-04T11:28:04.998Z,46.17
2022-12-04T11:30:37.478Z,51.55
2022-12-04T11:33:17.135Z,47.25
2022-12-04T11:35:54.230Z,47.80
2022-12-04T11:38:28.411Z,50.10
2022-12-04T11:41:01.110Z,48.45
2022-12-04T11:43:30.652Z,45.67
2022-12-04T11:46:03.926Z,46.17
2022-12-04T11:48:40.939Z,50.10
2022-12-04T11:51:14.468Z,45.92
2022-12-04T11:53:56.296Z,42.65
2022-12-04T11:56:43.661Z,45.05
2022-12-04T11:59:31.431Z,47.53
2022-12-04T12:02:20.574Z,44.67
2022-12-04T12:04:51.093Z,41.40
2022-12-04T12:07:30.764Z,40.75
2022-12-04T12:10:38.872Z,42.53
2022-12-04T12:13:25.865Z,41.95
2022-12-04T12:16:17.091Z,41.03
2022-12-04T12:19:11.381Z,38.28
2022-12-04T12:22:05.235Z,47.50
2022-12-04T12:24:51.286Z,40.20
2022-12-04T12:27:29.849Z,44.20
2022-12-04T12:30:09.714Z,45.35
2022-12-04T12:33:08.606Z,40.80
2022-12-04T12:35:46.231Z,46.08
2022-12-04T12:38:44.163Z,38.17
2022-12-04T12:41:17.113Z,40.60
2022-12-04T12:44:06.696Z,46.58
2022-12-04T12:46:59.084Z,43.17
2022-12-04T12:49:55.719Z,40.30
2022-12-04T12:52:35.942Z,44.53
2022-12-04T12:55:29.212Z,42.00
2022-12-04T12:58:12.430Z,39.83
2022-12-04T13:00:49.096Z,37.92
2022-12-04T13:03:31.941Z,36.90
2022-12-04T13:06:06.205Z,41.80
2022-12-04T13:08:59.724Z,38.40
2022-12-04T13:11:32.597Z,42.65
2022-12-04T13:14:03.824Z,40.42
2022-12-04T13:16:39.247Z,35.35
2022-12-04T13:19:24.831Z,22.47
2022-12-04T13:21:58.064Z,29.48
2022-12-04T13:24:35.168Z,29.48
2022-12-04T13:27:08.438Z,28.88
2022-12-04T13:29:52.733Z,26.63
2022-12-04T13:32:58.319Z,25.15
2022-12-04T13:35:39.512Z,26.75
2022-12-04T13:38:58.643Z,24.63
2022-12-04T13:41:30.068Z,24.33
2022-12-04T13:44:04.129Z,23.05
2022-12-04T13:46:54.332Z,23.67
2022-12-04T13:49:27.031Z,24.08
2022-12-04T13:51:56.579Z,26.65
2022-12-04T13:54:32.149Z,25.75
2022-12-04T13:57:17.478Z,27.40
2022-12-04T13:59:45.250Z,24.65
2022-12-04T14:02:28.160Z,23.40
2022-12-04T14:05:04.172Z,27.63
2022-12-04T14:07:39.969Z,25.00
2022-12-04T14:10:27.198Z,24.67
2022-12-04T14:12:59.400Z,23.98
2022-12-04T14:15:39.889Z,24.90
2022-12-04T14:18:28.908Z,21.08
2022-12-04T14:21:05.551Z,24.38
2022-12-04T14:23:41.540Z,24.15
2022-12-04T14:27:10.239Z,26.13
2022-12-04T14:29:52.763Z,23.58
2022-12-04T14:32:27.990Z,26.77
2022-12-04T14:34:57.052Z,25.08
2022-12-04T14:37:34.110Z,25.67
2022-12-04T14:40:04.325Z,26.83
2022-12-04T14:42:39.900Z,23.25
2022-12-04T14:45:47.130Z,23.27
2022-12-04T14:48:58.432Z,29.23
2022-12-04T14:51:34.768Z,26.23
2022-12-04T14:54:34.256Z,28.48
2022-12-04T14:57:21.410Z,27.85
2022-12-04T15:02:41.804Z,30.23
2022-12-04T15:05:30.599Z,28.13
2022-12-04T15:08:06.194Z,29.77
2022-12-04T15:10:54.718Z,26.83
2022-12-04T15:13:35.599Z,29.13
2022-12-04T15:16:22.971Z,26.90
2022-12-04T15:19:03.828Z,28.05
2022-12-04T15:21:42.216Z,32.53
2022-12-04T15:24:13.902Z,29.08
2022-12-04T15:26:42.593Z,26.90
2022-12-04T15:29:17.159Z,30.13
2022-12-04T15:31:54.012Z,31.63
2022-12-04T15:34:44.406Z,30.55
2022-12-04T15:37:21.760Z,29.38
2022-12-04T15:39:53.312Z,32.83
2022-12-04T15:42:25.006Z,32.90
2022-12-04T15:45:04.175Z,29.80
2022-12-04T15:47:50.113Z,29.98
2022-12-04T15:50:23.001Z,33.70
2022-12-04T15:53:27.821Z,31.73
2022-12-04T15:56:07.789Z,34.45
2022-12-04T15:58:40.912Z,31.15
2022-12-04T16:01:16.212Z,33.10
2022-12-04T16:06:23.434Z,34.78
2022-12-04T16:09:01.246Z,36.25
2022-12-04T16:11:39.023Z,34.45
2022-12-04T16:14:10.355Z,37.13
2022-12-04T16:16:44.243Z,35.28
2022-12-04T16:19:34.378Z,36.83
2022-12-04T16:22:04.484Z,38.35
2022-12-04T16:24:32.403Z,38.45
2022-12-04T16:27:01.660Z,36.13
2022-12-04T16:29:31.105Z,39.78
2022-12-04T16:32:03.013Z,36.58
2022-12-04T16:34:35.396Z,36.70
2022-12-04T16:37:12.402Z,35.05
2022-12-04T16:39:41.590Z,35.90
2022-12-04T16:42:27.918Z,37.42
2022-12-04T16:44:57.179Z,38.08
2022-12-04T16:47:25.474Z,38.80
2022-12-04T16:49:56.409Z,37.45
2022-12-04T16:52:24.318Z,37.80
2022-12-04T16:54:52.343Z,37.13
2022-12-04T16:57:20.623Z,40.15
2022-12-04T16:59:52.119Z,37.30
2022-12-04T17:02:29.088Z,39.78
2022-12-04T17:04:58.309Z,39.10
2022-12-04T17:07:26.546Z,42.33
2022-12-04T17:09:55.000Z,36.30
2022-12-04T17:12:22.936Z,36.83
2022-12-04T17:14:51.085Z,39.42
2022-12-04T17:17:18.825Z,39.40
2022-12-04T17:19:49.130Z,40.90
2022-12-04T17:22:22.126Z,41.58
2022-12-04T17:24:56.471Z,43.08
2022-12-04T17:27:26.974Z,44.00
2022-12-04T17:29:56.852Z,42.22
2022-12-04T17:32:24.458Z,41.28
2022-12-04T17:34:54.785Z,41.35
2022-12-04T17:37:23.318Z,42.28
2022-12-04T17:39:52.145Z,43.75
2022-12-04T17:42:20.300Z,44.83
2022-12-04T17:44:48.595Z,44.08
2022-12-04T17:47:19.170Z,44.35
2022-12-04T17:49:47.791Z,43.88
2022-12-04T17:52:23.107Z,45.70
2022-12-04T17:54:51.362Z,46.65
2022-12-04T17:57:19.769Z,44.67
2022-12-04T17:59:52.954Z,44.05
2022-12-04T18:02:23.561Z,49.95
2022-12-04T18:04:55.397Z,41.72
2022-12-04T18:07:24.770Z,45.35
2022-12-04T18:09:53.048Z,45.10
2022-12-04T18:12:20.780Z,49.17
2022-12-04T18:14:49.440Z,44.63
2022-12-04T18:17:20.558Z,46.20
2022-12-04T18:19:49.812Z,42.58
2022-12-04T18:22:17.254Z,46.85
2022-12-04T18:24:45.794Z,46.72
2022-12-04T18:27:13.943Z,45.97
2022-12-04T18:29:42.833Z,46.53
2022-12-04T18:32:10.690Z,40.03
2022-12-04T18:34:39.272Z,44.15
2022-12-04T18:37:07.461Z,40.47
2022-12-04T18:39:37.024Z,43.33
2022-12-04T18:42:05.272Z,40.97
2022-12-04T18:44:33.673Z,43.15
2022-12-04T18:47:06.514Z,40.92
2022-12-04T18:49:47.513Z,44.60
2022-12-04T18:52:19.907Z,39.28
2022-12-04T18:54:54.157Z,42.38
2022-12-04T18:57:47.699Z,46.65
2022-12-04T19:00:37.024Z,41.72
2022-12-04T19:03:33.158Z,39.22
2022-12-04T19:06:13.211Z,40.67
2022-12-04T19:09:04.275Z,41.40
2022-12-04T19:11:46.443Z,43.15
2022-12-04T19:14:26.940Z,38.88
2022-12-04T19:16:57.779Z,38.83
2022-12-04T19:19:45.244Z,41.28
2022-12-04T19:22:45.438Z,39.60
2022-12-04T19:25:41.450Z,38.60
2022-12-04T19:28:32.961Z,40.90
2022-12-04T19:34:22.054Z,41.90
2022-12-04T19:36:55.610Z,41.35
2022-12-04T19:39:27.162Z,41.08
2022-12-04T19:42:28.608Z,38.47
2022-12-04T19:45:19.208Z,38.45
2022-12-04T19:48:09.985Z,41.92
2022-12-04T19:50:40.429Z,36.63
2022-12-04T19:53:19.241Z,36.90
2022-12-04T19:55:58.698Z,40.97
2022-12-04T19:59:00.348Z,40.25
2022-12-04T20:01:37.154Z,41.08
2022-12-04T20:04:08.516Z,42.03
2022-12-04T20:06:46.668Z,38.40
2022-12-04T20:09:20.441Z,44.03
2022-12-04T20:11:52.525Z,43.00
2022-12-04T20:14:21.554Z,41.30
2022-12-04T20:16:49.535Z,40.97
2022-12-04T20:19:25.083Z,40.33
2022-12-04T20:22:03.238Z,45.75
2022-12-04T20:24:39.926Z,42.97
2022-12-04T20:27:10.673Z,46.45
2022-12-04T20:30:04.559Z,41.80
2022-12-04T20:32:45.194Z,40.13
2022-12-04T20:35:17.652Z,41.38
2022-12-04T20:37:45.780Z,42.35
2022-12-04T20:40:14.539Z,48.13
2022-12-04T20:42:43.311Z,41.13
2022-12-04T20:45:15.042Z,46.80
2022-12-04T20:47:45.771Z,46.58
2022-12-04T20:50:16.317Z,45.50
2022-12-04T20:52:46.882Z,42.63
2022-12-04T20:55:15.991Z,47.92
2022-12-04T20:57:47.304Z,44.60
2022-12-04T21:00:16.180Z,51.05
2022-12-04T21:02:44.256Z,46.05
2022-12-04T21:05:12.496Z,48.67
2022-12-04T21:07:40.387Z,42.80
2022-12-04T21:10:09.102Z,43.88
2022-12-04T21:12:55.259Z,44.70
2022-12-04T21:18:12.468Z,45.38
2022-12-04T21:20:40.333Z,45.05
2022-12-04T21:23:08.673Z,45.38
2022-12-04T21:25:37.638Z,41.92
2022-12-04T21:28:04.868Z,45.13
2022-12-04T21:30:35.163Z,42.22
2022-12-04T21:33:02.202Z,39.55
2022-12-04T21:35:31.760Z,45.13
2022-12-04T21:37:58.925Z,41.35
2022-12-04T21:40:28.471Z,38.40
2022-12-04T21:42:55.506Z,39.45
2022-12-04T21:45:22.798Z,39.35
2022-12-04T21:47:52.606Z,37.53
2022-12-04T21:50:19.915Z,38.45
2022-12-04T21:52:47.382Z,38.45
2022-12-04T21:55:14.771Z,36.63
2022-12-04T21:57:41.801Z,37.30
2022-12-04T22:00:09.898Z,32.30
2022-12-04T22:02:40.071Z,35.28
2022-12-04T22:05:07.976Z,30.50
2022-12-04T22:07:34.975Z,31.27
2022-12-04T22:10:08.695Z,29.85
2022-12-04T22:12:52.874Z,39.75
2022-12-04T22:15:20.170Z,30.20
2022-12-04T22:17:47.188Z,29.20
2022-12-04T22:20:14.544Z,28.25
2022-12-04T22:22:41.830Z,27.08
2022-12-04T22:25:09.495Z,28.77
2022-12-04T22:27:36.446Z,28.25
2022-12-04T22:30:07.171Z,32.35
2022-12-04T22:32:34.352Z,29.65
2022-12-04T22:35:01.600Z,29.58
2022-12-04T22:37:28.549Z,29.52
2022-12-04T22:39:58.445Z,27.70
2022-12-04T22:42:25.696Z,32.03
2022-12-04T22:44:53.156Z,31.60
2022-12-04T22:47:20.152Z,31.35
2022-12-04T22:49:47.432Z,28.65
2022-12-04T22:52:17.016Z,30.42
2022-12-04T22:54:46.737Z,32.15
2022-12-04T22:57:13.716Z,35.95
2022-12-04T22:59:41.218Z,28.77
2022-12-04T23:02:08.267Z,28.73
2022-12-04T23:04:40.512Z,32.50
2022-12-04T23:07:07.488Z,32.45
2022-12-04T23:09:35.441Z,32.88
2022-12-04T23:12:04.903Z,38.47
2022-12-04T23:14:33.754Z,34.75
2022-12-04T23:17:00.758Z,38.22
2022-12-04T23:19:28.175Z,32.85
2022-12-04T23:21:57.287Z,35.95
2022-12-04T23:24:25.846Z,37.17
2022-12-04T23:26:55.496Z,37.35
2022-12-04T23:29:51.415Z,36.20
2022-12-04T23:32:12.260Z,38.22
2022-12-04T23:34:42.120Z,36.22
2022-12-04T23:37:09.375Z,32.00
2022-12-04T23:39:36.839Z,35.88
2022-12-04T23:42:06.201Z,42.78
2022-12-04T23:44:33.455Z,36.47
2022-12-04T23:47:00.504Z,36.75
2022-12-04T23:49:30.218Z,39.40
2022-12-04T23:51:57.191Z,34.72
2022-12-04T23:54:27.381Z,34.33
2022-12-04T23:56:56.686Z,33.25
2022-12-04T23:59:23.944Z,37.88
